createdAt,value
2017-09-17T00:00:43.974Z,100096.33
2017-09-17T00:03:11.366Z,100094.80
2017-09-17T00:05:38.766Z,100084.78
2017-09-17T00:08:06.171Z,100091.24
2017-09-17T00:10:33.582Z,100092.33
2017-09-17T00:13:00.983Z,100088.46
2017-09-17T00:15:28.386Z,100091.44
2017-09-17T00:17:55.787Z,100088.79
2017-09-17T00:20:23.295Z,100087.03
2017-09-17T00:22:50.703Z,100092.95
2017-09-17T00:25:18.142Z,100091.33
2017-09-17T00:27:45.543Z,100091.75
2017-09-17T00:30:12.949Z,100090.84
2017-09-17T00:32:40.339Z,100084.66
2017-09-17T00:35:07.738Z,100090.64
2017-09-17T00:37:35.145Z,100092.48
2017-09-17T00:40:02.548Z,100092.19
2017-09-17T00:42:29.952Z,100089.66
2017-09-17T00:44:57.379Z,100082.73
2017-09-17T00:47:24.762Z,100084.14
2017-09-17T00:49:52.163Z,100081.20
2017-09-17T00:52:19.559Z,100077.75
2017-09-17T00:54:46.962Z,100086.48
2017-09-17T00:57:14.384Z,100083.41
2017-09-17T00:59:41.798Z,100079.72
2017-09-17T01:02:09.199Z,100080.27
2017-09-17T01:04:36.607Z,100081.19
2017-09-17T01:07:04.016Z,100074.33
2017-09-17T01:09:31.414Z,100078.83
2017-09-17T01:11:58.832Z,100082.11
2017-09-17T01:14:26.250Z,100081.08
2017-09-17T01:16:53.657Z,100077.93
2017-09-17T01:19:21.051Z,100090.33
2017-09-17T01:21:48.647Z,100085.39
2017-09-17T01:24:16.059Z,100087.55
2017-09-17T01:26:43.458Z,100087.44
2017-09-17T01:29:10.866Z,100084.70
2017-09-17T01:31:38.288Z,100089.92
2017-09-17T01:34:05.714Z,100084.00
2017-09-17T01:36:33.115Z,100076.84
2017-09-17T01:39:00.531Z,100078.25
2017-09-17T01:41:27.924Z,100081.33
2017-09-17T01:43:55.310Z,100080.00
2017-09-17T01:46:22.713Z,100076.50
2017-09-17T01:48:50.099Z,100077.75
2017-09-17T01:51:17.518Z,100082.24
2017-09-17T01:53:44.919Z,100075.91
2017-09-17T01:56:12.319Z,100075.83
2017-09-17T01:58:39.723Z,100078.27
2017-09-17T02:01:07.119Z,100073.25
2017-09-17T02:03:34.524Z,100072.87
2017-09-17T02:06:01.923Z,100077.23
2017-09-17T02:08:29.364Z,100078.91
2017-09-17T02:10:56.794Z,100078.61
2017-09-17T02:13:24.221Z,100072.67
2017-09-17T02:15:51.619Z,100078.91
2017-09-17T02:18:19.010Z,100075.64
2017-09-17T02:20:46.412Z,100079.30
2017-09-17T02:23:13.806Z,100076.97
2017-09-17T02:25:41.214Z,100081.27
2017-09-17T02:28:08.603Z,100081.15
2017-09-17T02:30:35.999Z,100080.13
2017-09-17T02:33:03.387Z,100077.88
2017-09-17T02:35:30.795Z,100080.96
2017-09-17T02:37:58.187Z,100081.45
2017-09-17T02:40:25.588Z,100080.43
2017-09-17T02:42:52.987Z,100079.59
2017-09-17T02:45:20.375Z,100072.03
2017-09-17T02:47:47.796Z,100083.70
2017-09-17T02:50:15.187Z,100076.44
2017-09-17T02:52:42.589Z,100074.81
2017-09-17T02:55:09.981Z,100079.33
2017-09-17T02:57:37.478Z,100079.41
2017-09-17T03:00:04.879Z,100085.75
2017-09-17T03:02:32.274Z,100085.56
2017-09-17T03:04:59.724Z,100082.48
2017-09-17T03:07:27.095Z,100081.95
2017-09-17T03:09:54.502Z,100082.29
2017-09-17T03:12:21.890Z,100085.14
2017-09-17T03:14:49.290Z,100086.05
2017-09-17T03:17:16.683Z,100088.22
2017-09-17T03:19:44.104Z,100086.16
2017-09-17T03:22:11.507Z,100083.98
2017-09-17T03:24:38.924Z,100082.95
2017-09-17T03:27:06.340Z,100084.79
2017-09-17T03:29:33.744Z,100085.08
2017-09-17T03:32:01.154Z,100083.95
2017-09-17T03:34:28.554Z,100090.91
2017-09-17T03:36:55.959Z,100093.94
2017-09-17T03:39:23.366Z,100094.05
2017-09-17T03:41:50.783Z,100099.78
2017-09-17T03:44:18.200Z,100096.84
2017-09-17T03:46:45.595Z,100097.16
2017-09-17T03:49:12.993Z,100093.48
2017-09-17T03:51:40.394Z,100090.81
2017-09-17T03:54:07.938Z,100086.23
2017-09-17T03:56:35.347Z,100090.42
2017-09-17T03:59:02.755Z,100081.01
2017-09-17T04:01:30.151Z,100085.22
2017-09-17T04:03:57.555Z,100079.69
2017-09-17T04:06:24.952Z,100079.57
2017-09-17T04:08:52.338Z,100083.88
2017-09-17T04:11:19.748Z,100080.59
2017-09-17T04:13:47.122Z,100075.58
2017-09-17T04:16:14.592Z,100087.86
2017-09-17T04:18:41.981Z,100080.10
2017-09-17T04:21:09.391Z,100081.73
2017-09-17T04:23:36.791Z,100083.78
2017-09-17T04:26:04.182Z,100083.88
2017-09-17T04:28:31.579Z,100091.66
2017-09-17T04:30:58.977Z,100088.69
2017-09-17T04:33:26.770Z,100094.20
2017-09-17T04:35:54.165Z,100093.78
2017-09-17T04:38:21.550Z,100092.03
2017-09-17T04:40:48.967Z,100098.49
2017-09-17T04:43:16.356Z,100090.70
2017-09-17T04:45:43.759Z,100099.52
2017-09-17T04:48:11.151Z,100097.78
2017-09-17T04:50:38.695Z,100098.00
2017-09-17T04:53:06.107Z,100096.68
2017-09-17T04:55:33.508Z,100113.03
2017-09-17T04:58:00.902Z,100107.22
2017-09-17T05:00:28.315Z,100112.55
2017-09-17T05:02:55.711Z,100118.47
2017-09-17T05:05:23.129Z,100121.02
2017-09-17T05:07:50.518Z,100125.55
2017-09-17T05:10:17.921Z,100128.31
2017-09-17T05:12:45.311Z,100132.27
2017-09-17T05:15:12.710Z,100133.21
2017-09-17T05:17:40.827Z,100138.91
2017-09-17T05:20:08.771Z,100134.72
2017-09-17T05:22:36.167Z,100135.51
2017-09-17T05:25:03.594Z,100141.47
2017-09-17T05:27:31.042Z,100142.88
2017-09-17T05:29:58.527Z,100148.62
2017-09-17T05:32:25.959Z,100141.33
2017-09-17T05:34:53.352Z,100145.52
2017-09-17T05:37:21.687Z,100153.00
2017-09-17T05:39:49.074Z,100144.27
2017-09-17T05:42:16.466Z,100148.64
2017-09-17T05:44:43.859Z,100149.36
2017-09-17T05:47:11.299Z,100156.00
2017-09-17T05:49:38.683Z,100157.23
2017-09-17T05:52:06.080Z,100156.88
2017-09-17T05:54:33.498Z,100162.59
2017-09-17T05:57:00.903Z,100156.64
2017-09-17T05:59:28.310Z,100161.84
2017-09-17T06:01:55.723Z,100161.41
2017-09-17T06:04:23.152Z,100160.96
2017-09-17T06:06:50.527Z,100161.58
2017-09-17T06:09:18.424Z,100159.80
2017-09-17T06:11:45.807Z,100162.88
2017-09-17T06:14:13.202Z,100164.40
2017-09-17T06:16:40.630Z,100161.60
2017-09-17T06:19:08.036Z,100165.88
2017-09-17T06:21:35.439Z,100163.06
2017-09-17T06:24:02.842Z,100164.45
2017-09-17T06:26:30.231Z,100166.37
2017-09-17T06:28:57.637Z,100173.50
2017-09-17T06:31:25.075Z,100165.09
2017-09-17T06:33:52.467Z,100164.70
2017-09-17T06:36:19.866Z,100173.67
2017-09-17T06:38:47.284Z,100172.68
2017-09-17T06:41:14.682Z,100172.48
2017-09-17T06:43:42.065Z,100178.45
2017-09-17T06:46:09.458Z,100179.59
2017-09-17T06:48:36.855Z,100173.86
2017-09-17T06:51:04.266Z,100183.83
2017-09-17T06:53:31.763Z,100178.89
2017-09-17T06:55:59.163Z,100184.38
2017-09-17T06:58:26.787Z,100180.44
2017-09-17T07:00:54.187Z,100183.39
2017-09-17T07:03:21.563Z,100178.56
2017-09-17T07:05:49.034Z,100178.81
2017-09-17T07:08:16.410Z,100181.19
2017-09-17T07:10:43.811Z,100186.84
2017-09-17T07:13:11.195Z,100187.47
2017-09-17T07:15:38.609Z,100188.56
2017-09-17T07:18:05.999Z,100190.39
2017-09-17T07:20:33.386Z,100196.13
2017-09-17T07:23:00.793Z,100198.47
2017-09-17T07:25:28.198Z,100204.61
2017-09-17T07:27:55.599Z,100200.17
2017-09-17T07:30:22.998Z,100208.50
2017-09-17T07:32:50.394Z,100212.67
2017-09-17T07:35:17.804Z,100212.02
2017-09-17T07:37:45.222Z,100211.05
2017-09-17T07:40:12.607Z,100210.33
2017-09-17T07:42:39.999Z,100212.98
2017-09-17T07:45:07.399Z,100216.47
2017-09-17T07:47:34.798Z,100214.35
2017-09-17T07:50:02.247Z,100217.50
2017-09-17T07:52:29.631Z,100223.15
2017-09-17T07:54:57.039Z,100221.83
2017-09-17T07:57:24.431Z,100228.14
2017-09-17T07:59:52.235Z,100227.94
2017-09-17T08:02:19.627Z,100227.53
2017-09-17T08:04:47.081Z,100228.95
2017-09-17T08:07:14.470Z,100234.25
2017-09-17T08:09:41.897Z,100233.30
2017-09-17T08:12:09.339Z,100231.95
2017-09-17T08:14:36.731Z,100227.81
2017-09-17T08:17:04.172Z,100232.41
2017-09-17T08:19:31.564Z,100232.58
2017-09-17T08:21:59.148Z,100221.78
2017-09-17T08:24:26.536Z,100226.34
2017-09-17T08:26:53.943Z,100223.53
2017-09-17T08:29:21.350Z,100216.44
2017-09-17T08:31:48.760Z,100218.34
2017-09-17T08:34:16.168Z,100217.45
2017-09-17T08:36:43.558Z,100213.25
2017-09-17T08:39:10.955Z,100209.53
2017-09-17T08:41:38.347Z,100208.03
2017-09-17T08:44:05.899Z,100206.67
2017-09-17T08:46:33.321Z,100205.50
2017-09-17T08:49:00.711Z,100214.10
2017-09-17T08:51:28.315Z,100209.23
2017-09-17T08:53:56.695Z,100208.04
2017-09-17T08:56:24.086Z,100212.66
2017-09-17T08:58:51.483Z,100211.58
2017-09-17T09:01:18.896Z,100212.48
2017-09-17T09:03:46.269Z,100210.94
2017-09-17T09:06:13.674Z,100206.33
2017-09-17T09:08:41.079Z,100211.23
2017-09-17T09:11:08.468Z,100205.02
2017-09-17T09:13:35.859Z,100204.41
2017-09-17T09:16:03.285Z,100208.51
2017-09-17T09:18:30.647Z,100202.92
2017-09-17T09:20:58.042Z,100206.16
2017-09-17T09:23:25.472Z,100206.77
2017-09-17T09:25:52.867Z,100201.42
2017-09-17T09:28:20.279Z,100198.41
2017-09-17T09:30:47.672Z,100200.55
2017-09-17T09:33:15.091Z,100205.81
2017-09-17T09:35:42.478Z,100202.55
2017-09-17T09:38:10.471Z,100198.50
2017-09-17T09:40:37.866Z,100203.70
2017-09-17T09:43:05.267Z,100207.75
2017-09-17T09:45:32.666Z,100201.12
2017-09-17T09:48:00.054Z,100199.56
2017-09-17T09:50:27.468Z,100198.37
2017-09-17T09:52:54.855Z,100198.78
2017-09-17T09:55:22.243Z,100193.77
2017-09-17T09:57:49.657Z,100199.87
2017-09-17T10:00:17.036Z,100194.45
2017-09-17T10:02:44.432Z,100193.95
2017-09-17T10:05:11.814Z,100195.90
2017-09-17T10:07:42.439Z,100192.70
2017-09-17T10:10:09.830Z,100183.02
2017-09-17T10:12:37.374Z,100189.73
2017-09-17T10:15:04.768Z,100186.98
2017-09-17T10:17:32.159Z,100179.00
2017-09-17T10:19:59.563Z,100182.83
2017-09-17T10:22:26.951Z,100185.65
2017-09-17T10:24:54.347Z,100182.39
2017-09-17T10:27:21.732Z,100177.42
2017-09-17T10:29:49.126Z,100171.89
2017-09-17T10:32:16.517Z,100172.87
2017-09-17T10:34:43.904Z,100172.71
2017-09-17T10:37:11.296Z,100168.49
2017-09-17T10:39:38.686Z,100170.68
2017-09-17T10:42:06.083Z,100164.17
2017-09-17T10:44:33.470Z,100162.44
2017-09-17T10:47:01.303Z,100157.79
2017-09-17T10:49:28.700Z,100162.56
2017-09-17T10:51:56.098Z,100160.30
2017-09-17T10:54:23.504Z,100156.20
2017-09-17T10:56:50.896Z,100152.29
2017-09-17T10:59:18.286Z,100160.53
2017-09-17T11:01:45.671Z,100153.61
2017-09-17T11:04:13.088Z,100151.96
2017-09-17T11:06:40.474Z,100152.03
2017-09-17T11:09:07.870Z,100148.44
2017-09-17T11:11:35.259Z,100147.41
2017-09-17T11:14:02.646Z,100140.61
2017-09-17T11:16:30.039Z,100148.47
2017-09-17T11:18:57.428Z,100140.45
2017-09-17T11:21:24.814Z,100140.89
2017-09-17T11:23:52.204Z,100137.09
2017-09-17T11:26:19.600Z,100142.64
2017-09-17T11:28:48.941Z,100142.43
2017-09-17T11:31:16.356Z,100142.37
2017-09-17T11:33:43.759Z,100134.48
2017-09-17T11:36:11.148Z,100135.03
2017-09-17T11:38:38.552Z,100134.23
2017-09-17T11:41:07.202Z,100132.40
2017-09-17T11:43:34.634Z,100123.95
2017-09-17T11:46:02.033Z,100128.12
2017-09-17T11:48:29.424Z,100130.97
2017-09-17T11:50:56.814Z,100132.55
2017-09-17T11:53:24.310Z,100127.19
2017-09-17T11:55:51.704Z,100128.58
2017-09-17T11:58:19.094Z,100121.95
2017-09-17T12:00:46.492Z,100123.36
2017-09-17T12:03:13.930Z,100117.52
2017-09-17T12:05:41.331Z,100117.03
2017-09-17T12:08:08.720Z,100115.71
2017-09-17T12:10:36.155Z,100104.48
2017-09-17T12:13:03.548Z,100104.86
2017-09-17T12:15:30.943Z,100102.38
2017-09-17T12:17:58.331Z,100101.28
2017-09-17T12:20:25.735Z,100102.44
2017-09-17T12:22:53.120Z,100094.48
2017-09-17T12:25:20.803Z,100096.70
2017-09-17T12:27:48.186Z,100089.53
2017-09-17T12:30:15.586Z,100085.78
2017-09-17T12:32:42.984Z,100087.66
2017-09-17T12:35:10.379Z,100087.52
2017-09-17T12:37:37.783Z,100087.41
2017-09-17T12:40:05.177Z,100086.66
2017-09-17T12:42:32.579Z,100084.87
2017-09-17T12:44:59.974Z,100083.59
2017-09-17T12:47:27.371Z,100083.50
2017-09-17T12:49:54.762Z,100081.76
2017-09-17T12:52:22.163Z,100084.34
2017-09-17T12:54:49.552Z,100084.19
2017-09-17T12:57:16.950Z,100079.86
2017-09-17T12:59:44.338Z,100082.33
2017-09-17T13:02:11.835Z,100079.03
2017-09-17T13:04:39.226Z,100084.91
2017-09-17T13:07:06.619Z,100087.53
2017-09-17T13:09:34.006Z,100084.16
2017-09-17T13:12:01.392Z,100078.32
2017-09-17T13:14:28.826Z,100079.65
2017-09-17T13:16:56.215Z,100069.59
2017-09-17T13:19:24.187Z,100069.06
2017-09-17T13:21:51.578Z,100070.00
2017-09-17T13:24:19.022Z,100069.40
2017-09-17T13:26:46.395Z,100068.03
2017-09-17T13:29:13.791Z,100067.08
2017-09-17T13:31:42.362Z,100062.70
2017-09-17T13:34:09.760Z,100050.21
2017-09-17T13:36:37.156Z,100052.57
2017-09-17T13:39:04.539Z,100049.54
2017-09-17T13:41:31.940Z,100054.84
2017-09-17T13:43:59.322Z,100053.38
2017-09-17T13:46:26.740Z,100049.92
2017-09-17T13:48:54.123Z,100047.59
2017-09-17T13:51:21.517Z,100051.06
2017-09-17T13:53:48.912Z,100048.95
2017-09-17T13:56:16.296Z,100043.77
2017-09-17T13:58:43.687Z,100046.35
2017-09-17T14:01:13.463Z,100042.58
2017-09-17T14:03:40.856Z,100040.27
2017-09-17T14:06:08.243Z,100044.23
2017-09-17T14:08:46.347Z,100035.61
2017-09-17T14:11:14.087Z,100043.05
2017-09-17T14:13:41.470Z,100039.53
2017-09-17T14:16:08.865Z,100036.72
2017-09-17T14:18:36.259Z,100034.83
2017-09-17T14:21:03.670Z,100034.28
2017-09-17T14:23:31.061Z,100028.03
2017-09-17T14:25:58.456Z,100033.21
2017-09-17T14:28:25.851Z,100029.53
2017-09-17T14:30:53.235Z,100032.80
2017-09-17T14:33:20.638Z,100024.62
2017-09-17T14:35:48.018Z,100028.07
2017-09-17T14:38:15.414Z,100025.20
2017-09-17T14:40:42.811Z,100027.22
2017-09-17T14:43:10.219Z,100030.85
2017-09-17T14:45:37.614Z,100028.55
2017-09-17T14:48:05.027Z,100029.34
2017-09-17T14:50:32.415Z,100023.78
2017-09-17T14:52:59.804Z,100018.22
2017-09-17T14:55:27.202Z,100024.25
2017-09-17T14:57:54.811Z,100020.06
2017-09-17T15:00:22.230Z,100022.31
2017-09-17T15:02:49.649Z,100020.01
2017-09-17T15:05:17.046Z,100016.91
2017-09-17T15:07:45.286Z,100020.84
2017-09-17T15:10:13.054Z,100023.16
2017-09-17T15:12:40.427Z,100023.14
2017-09-17T15:15:07.820Z,100022.34
2017-09-17T15:17:35.212Z,100016.14
2017-09-17T15:20:02.598Z,100019.52
2017-09-17T15:22:30.006Z,100017.08
2017-09-17T15:24:57.398Z,100026.14
2017-09-17T15:27:24.799Z,100023.70
2017-09-17T15:29:52.190Z,100023.42
2017-09-17T15:32:19.610Z,100020.16
2017-09-17T15:34:47.015Z,100024.35
2017-09-17T15:37:14.425Z,100024.46
2017-09-17T15:39:41.808Z,100020.27
2017-09-17T15:42:09.200Z,100031.48
2017-09-17T15:44:36.599Z,100031.20
2017-09-17T15:47:03.992Z,100030.58
2017-09-17T15:49:31.416Z,100028.52
2017-09-17T15:51:58.823Z,100024.84
2017-09-17T15:54:26.371Z,100024.28
2017-09-17T15:56:53.767Z,100022.38
2017-09-17T15:59:21.163Z,100022.98
2017-09-17T16:01:48.558Z,100025.33
2017-09-17T16:04:15.956Z,100028.47
2017-09-17T16:06:43.355Z,100026.87
2017-09-17T16:09:10.749Z,100030.03
2017-09-17T16:11:38.154Z,100033.36
2017-09-17T16:14:05.554Z,100029.96
2017-09-17T16:16:32.961Z,100037.36
2017-09-17T16:19:00.360Z,100031.69
2017-09-17T16:21:27.776Z,100029.77
2017-09-17T16:23:55.160Z,100032.05
2017-09-17T16:26:22.537Z,100030.81
2017-09-17T16:28:50.354Z,100031.72
2017-09-17T16:31:17.742Z,100033.05
2017-09-17T16:33:45.131Z,100036.26
2017-09-17T16:36:12.528Z,100041.06
2017-09-17T16:38:39.915Z,100043.87
2017-09-17T16:41:07.310Z,100044.22
2017-09-17T16:43:34.696Z,100041.25
2017-09-17T16:46:02.098Z,100043.80
2017-09-17T16:48:29.560Z,100040.97
2017-09-17T16:50:57.370Z,100043.73
2017-09-17T16:53:24.759Z,100046.98
2017-09-17T16:55:52.142Z,100044.23
2017-09-17T16:58:19.547Z,100046.98
2017-09-17T17:00:46.930Z,100046.21
2017-09-17T17:03:14.327Z,100052.31
2017-09-17T17:05:41.715Z,100051.77
2017-09-17T17:08:09.115Z,100050.56
2017-09-17T17:10:36.502Z,100058.09
2017-09-17T17:13:03.899Z,100058.36
2017-09-17T17:15:31.280Z,100062.36
2017-09-17T17:17:58.670Z,100067.17
2017-09-17T17:20:26.067Z,100063.91
2017-09-17T17:22:53.454Z,100068.70
2017-09-17T17:25:20.847Z,100067.75
2017-09-17T17:27:48.235Z,100070.48
2017-09-17T17:30:15.646Z,100069.02
2017-09-17T17:32:43.030Z,100071.02
2017-09-17T17:35:10.423Z,100068.64
2017-09-17T17:37:37.820Z,100067.13
2017-09-17T17:40:05.211Z,100072.02
2017-09-17T17:42:32.606Z,100066.02
2017-09-17T17:45:00.007Z,100068.80
2017-09-17T17:47:27.424Z,100071.28
2017-09-17T17:49:54.810Z,100076.91
2017-09-17T17:52:22.207Z,100078.66
2017-09-17T17:54:49.604Z,100079.30
2017-09-17T17:57:16.992Z,100090.00
2017-09-17T17:59:44.395Z,100086.45
2017-09-17T18:02:11.847Z,100092.17
2017-09-17T18:04:39.292Z,100096.19
2017-09-17T18:07:06.685Z,100097.50
2017-09-17T18:09:34.083Z,100110.97
2017-09-17T18:12:01.479Z,100111.82
2017-09-17T18:14:29.080Z,100116.31
2017-09-17T18:16:56.495Z,100113.83
2017-09-17T18:19:23.887Z,100119.13
2017-09-17T18:21:51.292Z,100122.15
2017-09-17T18:24:18.784Z,100120.30
2017-09-17T18:26:47.148Z,100114.93
2017-09-17T18:29:14.548Z,100116.33
2017-09-17T18:31:41.956Z,100115.55
2017-09-17T18:34:09.352Z,100122.23
2017-09-17T18:36:36.787Z,100125.39
2017-09-17T18:39:04.223Z,100126.28
2017-09-17T18:41:31.612Z,100129.97
2017-09-17T18:43:59.015Z,100130.73
2017-09-17T18:46:26.411Z,100131.02
2017-09-17T18:48:53.876Z,100130.35
2017-09-17T18:51:21.264Z,100132.78
2017-09-17T18:53:48.706Z,100134.24
2017-09-17T18:56:16.121Z,100136.80
2017-09-17T18:58:43.535Z,100139.25
2017-09-17T19:01:10.934Z,100140.59
2017-09-17T19:03:38.345Z,100140.18
2017-09-17T19:06:05.719Z,100139.30
2017-09-17T19:08:33.116Z,100140.19
2017-09-17T19:11:00.663Z,100139.89
2017-09-17T19:13:28.083Z,100137.69
2017-09-17T19:15:55.476Z,100136.86
2017-09-17T19:18:22.872Z,100136.57
2017-09-17T19:20:50.264Z,100137.20
2017-09-17T19:23:17.650Z,100142.56
2017-09-17T19:25:45.051Z,100137.61
2017-09-17T19:28:12.442Z,100135.94
2017-09-17T19:30:39.841Z,100132.33
2017-09-17T19:33:07.379Z,100134.42
2017-09-17T19:35:34.765Z,100136.33
2017-09-17T19:38:02.154Z,100133.70
2017-09-17T19:40:29.550Z,100131.15
2017-09-17T19:42:56.944Z,100136.97
2017-09-17T19:45:24.336Z,100137.19
2017-09-17T19:47:51.718Z,100134.67
2017-09-17T19:50:19.116Z,100132.88
2017-09-17T19:52:46.504Z,100129.79
2017-09-17T19:55:14.059Z,100131.55
2017-09-17T19:57:41.454Z,100129.97
2017-09-17T20:00:08.855Z,100132.53
2017-09-17T20:02:36.243Z,100130.77
2017-09-17T20:05:03.637Z,100132.37
2017-09-17T20:07:31.039Z,100131.50
2017-09-17T20:09:58.428Z,100136.31
2017-09-17T20:12:25.971Z,100139.80
2017-09-17T20:14:53.359Z,100137.09
2017-09-17T20:17:20.751Z,100147.12
2017-09-17T20:19:48.145Z,100142.24
2017-09-17T20:22:15.529Z,100148.85
2017-09-17T20:24:42.931Z,100147.09
2017-09-17T20:27:10.315Z,100151.56
2017-09-17T20:29:37.739Z,100149.40
2017-09-17T20:32:05.122Z,100153.83
2017-09-17T20:34:32.511Z,100151.70
2017-09-17T20:36:59.907Z,100153.16
2017-09-17T20:39:27.298Z,100156.80
2017-09-17T20:41:55.660Z,100155.17
2017-09-17T20:44:23.047Z,100154.75
2017-09-17T20:46:50.474Z,100153.87
2017-09-17T20:49:17.863Z,100154.12
2017-09-17T20:51:45.252Z,100152.91
2017-09-17T20:54:12.643Z,100154.54
2017-09-17T20:56:40.027Z,100153.83
2017-09-17T20:59:07.431Z,100152.83
2017-09-17T21:01:34.827Z,100155.63
2017-09-17T21:04:02.382Z,100153.25
2017-09-17T21:06:29.768Z,100157.55
2017-09-17T21:08:57.167Z,100164.86
2017-09-17T21:11:24.571Z,100162.03
2017-09-17T21:13:51.966Z,100162.67
2017-09-17T21:16:19.371Z,100161.86
2017-09-17T21:18:46.766Z,100169.12
2017-09-17T21:21:14.322Z,100169.70
2017-09-17T21:23:41.723Z,100170.30
2017-09-17T21:26:09.119Z,100169.70
2017-09-17T21:28:36.524Z,100167.23
2017-09-17T21:31:03.919Z,100172.67
2017-09-17T21:33:31.322Z,100169.08
2017-09-17T21:35:58.722Z,100166.35
2017-09-17T21:38:26.114Z,100172.42
2017-09-17T21:40:53.515Z,100175.59
2017-09-17T21:43:20.918Z,100170.73
2017-09-17T21:45:48.335Z,100175.78
2017-09-17T21:48:15.731Z,100179.42
2017-09-17T21:50:43.143Z,100175.23
2017-09-17T21:53:10.542Z,100178.20
2017-09-17T21:55:37.951Z,100177.08
2017-09-17T21:58:05.342Z,100177.61
2017-09-17T22:00:32.738Z,100176.31
2017-09-17T22:03:00.144Z,100184.75
2017-09-17T22:05:27.542Z,100187.30
2017-09-17T22:07:55.050Z,100180.48
2017-09-17T22:10:22.452Z,100181.28
2017-09-17T22:12:49.852Z,100182.41
2017-09-17T22:15:17.255Z,100182.08
2017-09-17T22:17:44.657Z,100183.08
2017-09-17T22:20:12.051Z,100182.09
2017-09-17T22:22:39.444Z,100185.02
2017-09-17T22:25:06.984Z,100183.28
2017-09-17T22:27:34.382Z,100182.03
2017-09-17T22:30:01.790Z,100178.07
2017-09-17T22:32:29.184Z,100180.14
2017-09-17T22:34:56.574Z,100170.25
2017-09-17T22:37:23.976Z,100171.63
2017-09-17T22:39:51.370Z,100168.91
2017-09-17T22:42:18.879Z,100171.20
2017-09-17T22:44:46.274Z,100172.13
2017-09-17T22:47:13.669Z,100172.30
2017-09-17T22:49:41.067Z,100170.91
2017-09-17T22:52:08.462Z,100176.03
2017-09-17T22:54:35.855Z,100173.14
2017-09-17T22:57:03.273Z,100175.00
2017-09-17T22:59:30.708Z,100172.42
2017-09-17T23:01:58.107Z,100172.31
2017-09-17T23:04:25.507Z,100178.05
2017-09-17T23:06:52.906Z,100177.60
2017-09-17T23:09:20.304Z,100173.03
2017-09-17T23:11:47.878Z,100174.93
2017-09-17T23:14:15.271Z,100173.00
2017-09-17T23:16:42.667Z,100168.31
2017-09-17T23:19:10.071Z,100169.34
2017-09-17T23:21:37.467Z,100169.79
2017-09-17T23:24:04.869Z,100169.02
2017-09-17T23:26:32.263Z,100170.70
2017-09-17T23:28:59.673Z,100175.35
2017-09-17T23:31:27.067Z,100171.25
2017-09-17T23:33:54.462Z,100171.88
2017-09-17T23:36:21.862Z,100169.86
2017-09-17T23:38:49.259Z,100165.97
2017-09-17T23:41:16.663Z,100161.66
2017-09-17T23:43:44.060Z,100169.09
2017-09-17T23:46:11.611Z,100164.94
2017-09-17T23:48:39.013Z,100169.67
2017-09-17T23:51:06.404Z,100167.83
2017-09-17T23:53:39.446Z,100162.52
2017-09-17T23:56:06.847Z,100166.63
2017-09-17T23:58:34.255Z,100165.02
